Terminal Aerodrome Forecast
Issued by NWS Chicago, IL

Home | Current Version | Previous Version | Text Only | Print | Product List | Glossary Off
Versions: 1 2 3 4 5 6 7 8 9 10 11 12 13 14 15 16 17 18 19 20 21 22 23 24 25

000
FTUS43 KLOT 150553
TAFRFD
TAF
KRFD 150553Z 1506/1606 VRB03KT 6SM BR FEW050
     FM150900 VRB03KT 3SM BR SCT020
     FM151300 01004KT P6SM SCT025
     FM151600 03005KT P6SM BKN050=

USA.gov is the U.S. government's official web portal to all federal, state and local government web resources and services.